createdAt,value
2022-08-01T00:00:54.871Z,15.32
2022-08-01T00:03:22.654Z,15.32
2022-08-01T00:05:50.612Z,15.32
2022-08-01T00:08:18.348Z,15.31
2022-08-01T00:10:46.099Z,15.33
2022-08-01T00:13:13.869Z,15.33
2022-08-01T00:15:41.805Z,15.32
2022-08-01T00:18:22.010Z,15.31
2022-08-01T00:20:49.862Z,15.30
2022-08-01T00:23:17.682Z,15.31
2022-08-01T00:25:45.398Z,15.31
2022-08-01T00:28:14.606Z,15.31
2022-08-01T00:30:42.432Z,15.31
2022-08-01T00:33:10.287Z,15.30
2022-08-01T00:35:38.027Z,15.31
2022-08-01T00:38:05.756Z,15.29
2022-08-01T00:40:33.467Z,15.28
2022-08-01T00:43:01.996Z,15.26
2022-08-01T00:45:30.200Z,15.25
2022-08-01T00:47:58.148Z,15.23
2022-08-01T00:50:27.191Z,15.21
2022-08-01T00:52:57.485Z,15.23
2022-08-01T00:55:26.450Z,15.22
2022-08-01T00:58:03.013Z,15.19
2022-08-01T01:00:52.979Z,15.17
2022-08-01T01:03:55.971Z,15.12
2022-08-01T01:06:24.367Z,15.07
2022-08-01T01:09:13.895Z,15.02
2022-08-01T01:12:07.603Z,14.96
2022-08-01T01:14:48.002Z,14.92
2022-08-01T01:17:40.657Z,14.86
2022-08-01T01:20:14.537Z,14.77
2022-08-01T01:22:49.451Z,14.72
2022-08-01T01:25:35.970Z,14.67
2022-08-01T01:28:22.429Z,14.61
2022-08-01T01:30:52.550Z,14.55
2022-08-01T01:33:22.407Z,14.50
2022-08-01T01:35:54.078Z,14.44
2022-08-01T01:38:25.369Z,14.38
2022-08-01T01:40:53.875Z,14.34
2022-08-01T01:43:28.654Z,14.29
2022-08-01T01:46:02.910Z,14.25
2022-08-01T01:48:32.113Z,14.20
2022-08-01T01:51:00.321Z,14.17
2022-08-01T01:53:29.649Z,14.13
2022-08-01T01:55:58.983Z,14.10
2022-08-01T01:58:27.560Z,14.06
2022-08-01T02:00:56.818Z,14.04
2022-08-01T02:03:27.726Z,14.03
2022-08-01T02:05:56.374Z,13.99
2022-08-01T02:08:24.779Z,13.94
2022-08-01T02:11:13.465Z,13.89
2022-08-01T02:13:41.663Z,13.83
2022-08-01T02:16:12.183Z,13.77
2022-08-01T02:18:39.908Z,13.74
2022-08-01T02:21:12.864Z,13.71
2022-08-01T02:23:42.076Z,13.67
2022-08-01T02:26:12.048Z,13.64
2022-08-01T02:28:47.068Z,13.61
2022-08-01T02:31:18.691Z,13.59
2022-08-01T02:33:52.456Z,13.59
2022-08-01T02:36:29.787Z,13.60
2022-08-01T02:39:14.384Z,13.61
2022-08-01T02:41:44.605Z,13.64
2022-08-01T02:44:19.234Z,13.66
2022-08-01T02:46:54.967Z,13.68
2022-08-01T02:49:24.278Z,13.69
2022-08-01T02:51:53.947Z,13.71
2022-08-01T02:54:22.727Z,13.71
2022-08-01T02:56:51.314Z,13.71
2022-08-01T02:59:22.347Z,13.71
2022-08-01T03:01:51.385Z,13.71
2022-08-01T03:04:19.981Z,13.71
2022-08-01T03:06:48.555Z,13.71
2022-08-01T03:09:17.088Z,13.72
2022-08-01T03:11:47.015Z,13.73
2022-08-01T03:14:15.797Z,13.75
2022-08-01T03:16:45.822Z,13.78
2022-08-01T03:19:14.897Z,13.81
2022-08-01T03:21:44.475Z,13.84
2022-08-01T03:24:12.481Z,13.87
2022-08-01T03:26:41.106Z,13.91
2022-08-01T03:29:20.791Z,13.95
2022-08-01T03:31:49.320Z,14.00
2022-08-01T03:34:17.708Z,14.05
2022-08-01T03:36:51.480Z,14.11
2022-08-01T03:39:20.372Z,14.15
2022-08-01T03:41:56.803Z,14.20
2022-08-01T03:44:28.167Z,14.25
2022-08-01T03:47:01.157Z,14.29
2022-08-01T03:49:34.162Z,14.32
2022-08-01T03:52:04.054Z,14.35
2022-08-01T03:54:35.243Z,14.37
2022-08-01T03:57:03.560Z,14.37
2022-08-01T03:59:31.899Z,14.39
2022-08-01T04:02:00.146Z,14.42
2022-08-01T04:04:29.736Z,14.46
2022-08-01T04:06:57.547Z,14.52
2022-08-01T04:09:25.269Z,14.56
2022-08-01T04:11:53.866Z,14.61
2022-08-01T04:14:22.251Z,14.66
2022-08-01T04:16:50.063Z,14.71
2022-08-01T04:19:17.767Z,14.77
2022-08-01T04:21:45.697Z,14.83
2022-08-01T04:24:16.306Z,14.89
2022-08-01T04:26:45.834Z,14.97
2022-08-01T04:29:15.249Z,15.02
2022-08-01T04:31:45.433Z,15.08
2022-08-01T04:34:15.639Z,15.15
2022-08-01T04:36:43.907Z,15.22
2022-08-01T04:39:12.113Z,15.28
2022-08-01T04:41:41.133Z,15.33
2022-08-01T04:44:09.243Z,15.37
2022-08-01T04:46:37.971Z,15.42
2022-08-01T04:49:08.088Z,15.45
2022-08-01T04:51:36.446Z,15.47
2022-08-01T04:54:05.009Z,15.45
2022-08-01T04:56:35.179Z,15.42
2022-08-01T04:59:21.732Z,15.42
2022-08-01T05:01:51.278Z,15.43
2022-08-01T05:04:19.612Z,15.42
2022-08-01T05:06:47.394Z,15.42
2022-08-01T05:09:15.408Z,15.44
2022-08-01T05:11:44.229Z,15.53
2022-08-01T05:14:11.934Z,15.68
2022-08-01T05:16:39.583Z,15.85
2022-08-01T05:19:09.191Z,16.00
2022-08-01T05:21:38.325Z,16.18
2022-08-01T05:24:06.571Z,16.27
2022-08-01T05:26:34.359Z,16.43
2022-08-01T05:29:04.328Z,16.58
2022-08-01T05:31:35.229Z,16.67
2022-08-01T05:34:03.856Z,16.74
2022-08-01T05:36:31.608Z,16.84
2022-08-01T05:38:59.394Z,17.01
2022-08-01T05:41:27.656Z,17.21
2022-08-01T05:43:55.556Z,17.34
2022-08-01T05:46:23.529Z,17.40
2022-08-01T05:48:54.291Z,17.49
2022-08-01T05:51:22.213Z,17.50
2022-08-01T05:53:50.389Z,17.59
2022-08-01T05:56:19.018Z,17.78
2022-08-01T05:58:46.706Z,17.92
2022-08-01T06:01:14.553Z,17.96
2022-08-01T06:03:42.256Z,18.08
2022-08-01T06:06:10.060Z,18.19
2022-08-01T06:08:37.891Z,18.32
2022-08-01T06:11:06.417Z,18.50
2022-08-01T06:13:34.342Z,18.61
2022-08-01T06:16:17.276Z,18.73
2022-08-01T06:18:45.052Z,18.84
2022-08-01T06:21:12.720Z,18.95
2022-08-01T06:23:42.523Z,19.08
2022-08-01T06:26:11.207Z,19.18
2022-08-01T06:28:39.712Z,19.30
2022-08-01T06:31:07.610Z,19.36
2022-08-01T06:33:35.500Z,19.36
2022-08-01T06:36:03.899Z,19.43
2022-08-01T06:38:31.643Z,19.54
2022-08-01T06:40:59.385Z,19.66
2022-08-01T06:43:27.351Z,19.86
2022-08-01T06:45:55.518Z,19.96
2022-08-01T06:48:24.002Z,20.04
2022-08-01T06:51:09.122Z,20.16
2022-08-01T06:53:38.309Z,20.34
2022-08-01T06:56:07.210Z,20.50
2022-08-01T06:58:35.877Z,20.58
2022-08-01T07:01:08.036Z,20.63
2022-08-01T07:03:53.181Z,20.73
2022-08-01T07:06:23.729Z,20.82
2022-08-01T07:08:52.509Z,20.79
2022-08-01T07:11:20.977Z,20.79
2022-08-01T07:13:49.657Z,20.87
2022-08-01T07:16:18.347Z,21.07
2022-08-01T07:18:46.122Z,21.23
2022-08-01T07:21:39.340Z,21.34
2022-08-01T07:24:01.667Z,21.51
2022-08-01T07:26:29.527Z,21.58
2022-08-01T07:28:57.351Z,21.60
2022-08-01T07:31:28.352Z,21.51
2022-08-01T07:33:58.293Z,21.45
2022-08-01T07:36:26.069Z,21.40
2022-08-01T07:38:53.921Z,21.44
2022-08-01T07:41:21.713Z,21.54
2022-08-01T07:44:09.428Z,21.67
2022-08-01T07:46:37.694Z,21.79
2022-08-01T07:49:05.472Z,21.85
2022-08-01T07:51:33.270Z,21.92
2022-08-01T07:54:01.045Z,22.08
2022-08-01T07:56:29.434Z,22.16
2022-08-01T07:58:57.172Z,22.12
2022-08-01T08:01:24.972Z,22.17
2022-08-01T08:03:52.719Z,22.40
2022-08-01T08:06:20.767Z,22.63
2022-08-01T08:08:48.886Z,22.57
2022-08-01T08:11:16.778Z,22.59
2022-08-01T08:13:44.726Z,22.71
2022-08-01T08:16:12.446Z,22.88
2022-08-01T08:18:40.320Z,23.07
2022-08-01T08:21:08.844Z,23.14
2022-08-01T08:23:55.485Z,23.14
2022-08-01T08:26:24.758Z,23.20
2022-08-01T08:28:52.538Z,23.23
2022-08-01T08:31:24.965Z,23.23
2022-08-01T08:33:53.489Z,23.22
2022-08-01T08:36:21.569Z,23.30
2022-08-01T08:38:49.246Z,23.50
2022-08-01T08:41:21.130Z,23.65
2022-08-01T08:43:49.647Z,23.94
2022-08-01T08:46:17.937Z,24.07
2022-08-01T08:48:57.347Z,24.13
2022-08-01T08:51:31.682Z,24.10
2022-08-01T08:53:59.960Z,24.13
2022-08-01T08:56:30.795Z,24.16
2022-08-01T08:58:58.611Z,24.24
2022-08-01T09:01:26.726Z,24.20
2022-08-01T09:03:55.089Z,24.28
2022-08-01T09:06:23.208Z,24.30
2022-08-01T09:08:51.317Z,24.35
2022-08-01T09:11:22.688Z,24.46
2022-08-01T09:14:03.190Z,25.57
2022-08-01T09:16:32.577Z,29.16
2022-08-01T09:19:16.145Z,32.59
2022-08-01T09:22:00.488Z,35.45
2022-08-01T09:24:32.460Z,37.70
2022-08-01T09:27:03.447Z,39.87
2022-08-01T09:29:38.164Z,42.03
2022-08-01T09:32:08.008Z,44.84
2022-08-01T09:34:36.181Z,47.72
2022-08-01T09:37:07.744Z,49.98
2022-08-01T09:39:38.689Z,52.06
2022-08-01T09:42:29.163Z,53.69
2022-08-01T09:44:57.016Z,55.26
2022-08-01T09:47:38.778Z,56.46
2022-08-01T09:50:11.171Z,57.79
2022-08-01T09:52:41.157Z,58.58
2022-08-01T09:55:10.250Z,59.35
2022-08-01T09:57:39.055Z,60.17
2022-08-01T10:00:35.739Z,61.12
2022-08-01T10:03:26.917Z,61.96
2022-08-01T10:05:54.903Z,62.11
2022-08-01T10:08:24.334Z,62.02
2022-08-01T10:11:36.465Z,62.24
2022-08-01T10:14:05.508Z,62.98
2022-08-01T10:16:35.776Z,63.71
2022-08-01T10:19:11.362Z,63.45
2022-08-01T10:21:56.655Z,62.19
2022-08-01T10:24:29.409Z,61.00
2022-08-01T10:27:06.065Z,61.05
2022-08-01T10:29:59.029Z,58.45
2022-08-01T10:32:29.955Z,56.77
2022-08-01T10:34:58.394Z,58.17
2022-08-01T10:37:26.989Z,58.57
2022-08-01T10:40:13.968Z,57.88
2022-08-01T10:42:45.335Z,58.07
2022-08-01T10:45:15.836Z,56.80
2022-08-01T10:48:04.367Z,56.80
2022-08-01T10:50:44.284Z,58.00
2022-08-01T10:53:24.331Z,58.33
2022-08-01T10:56:02.662Z,58.46
2022-08-01T10:58:42.625Z,58.77
2022-08-01T11:01:23.941Z,58.85
2022-08-01T11:04:03.089Z,58.86
2022-08-01T11:06:34.991Z,59.24
2022-08-01T11:09:16.876Z,59.98
2022-08-01T11:12:06.129Z,58.92
2022-08-01T11:14:54.005Z,56.63
2022-08-01T11:17:37.698Z,55.15
2022-08-01T11:20:09.976Z,52.62
2022-08-01T11:22:59.765Z,49.76
2022-08-01T11:26:03.600Z,47.42
2022-08-01T11:28:28.463Z,46.03
2022-08-01T11:31:00.209Z,45.07
2022-08-01T11:33:45.450Z,45.08
2022-08-01T11:36:14.388Z,44.24
2022-08-01T11:39:13.843Z,42.86
2022-08-01T11:41:44.951Z,41.28
2022-08-01T11:44:14.656Z,39.51
2022-08-01T11:47:09.366Z,37.94
2022-08-01T11:49:38.960Z,36.80
2022-08-01T11:52:15.320Z,36.06
2022-08-01T11:54:52.579Z,35.53
2022-08-01T11:57:34.637Z,35.06
2022-08-01T12:00:15.072Z,34.71
2022-08-01T12:02:45.621Z,34.25
2022-08-01T12:05:17.400Z,33.64
2022-08-01T12:07:46.922Z,33.04
2022-08-01T12:10:16.965Z,32.60
2022-08-01T12:12:47.646Z,32.15
2022-08-01T12:15:16.498Z,31.84
2022-08-01T12:17:59.918Z,31.42
2022-08-01T12:20:33.937Z,30.86
2022-08-01T12:23:04.050Z,30.63
2022-08-01T12:25:31.799Z,30.40
2022-08-01T12:28:04.686Z,30.26
2022-08-01T12:30:36.252Z,30.02
2022-08-01T12:33:07.442Z,29.62
2022-08-01T12:35:37.639Z,29.34
2022-08-01T12:38:15.756Z,29.20
2022-08-01T12:40:46.000Z,29.15
2022-08-01T12:43:27.433Z,29.38
2022-08-01T12:45:59.770Z,29.54
2022-08-01T12:48:29.056Z,29.22
2022-08-01T12:51:01.333Z,29.08
2022-08-01T12:53:40.949Z,29.06
2022-08-01T12:56:13.819Z,28.96
2022-08-01T12:58:41.776Z,28.85
2022-08-01T13:01:11.939Z,28.80
2022-08-01T13:03:40.771Z,28.70
2022-08-01T13:06:13.596Z,28.57
2022-08-01T13:08:41.763Z,28.43
2022-08-01T13:11:17.293Z,28.18
2022-08-01T13:13:51.000Z,27.86
2022-08-01T13:16:30.908Z,27.77
2022-08-01T13:19:08.001Z,27.72
2022-08-01T13:21:53.923Z,27.78
2022-08-01T13:24:30.383Z,27.78
2022-08-01T13:27:04.951Z,27.71
2022-08-01T13:29:39.188Z,27.68
2022-08-01T13:32:27.681Z,27.70
2022-08-01T13:35:06.598Z,27.68
2022-08-01T13:37:34.923Z,27.59
2022-08-01T13:40:05.320Z,27.46
2022-08-01T13:42:33.322Z,27.45
2022-08-01T13:45:01.401Z,27.42
2022-08-01T13:47:33.447Z,27.52
2022-08-01T13:50:03.747Z,27.71
2022-08-01T13:52:32.354Z,27.72
2022-08-01T13:55:00.689Z,27.73
2022-08-01T13:57:36.776Z,27.89
2022-08-01T14:00:07.187Z,28.16
2022-08-01T14:02:40.225Z,28.29
2022-08-01T14:05:08.090Z,28.30
2022-08-01T14:07:35.912Z,28.29
2022-08-01T14:10:19.531Z,28.29
2022-08-01T14:12:49.067Z,28.14
2022-08-01T14:15:37.046Z,28.19
2022-08-01T14:18:06.764Z,28.29
2022-08-01T14:20:35.634Z,28.56
2022-08-01T14:23:03.668Z,28.82
2022-08-01T14:26:02.595Z,29.00
2022-08-01T14:28:22.088Z,29.13
2022-08-01T14:30:50.247Z,29.54
2022-08-01T14:33:18.033Z,30.23
2022-08-01T14:36:01.814Z,31.13
2022-08-01T14:38:34.448Z,31.10
2022-08-01T14:41:04.579Z,30.65
2022-08-01T14:43:35.284Z,30.10
2022-08-01T14:46:04.768Z,29.99
2022-08-01T14:48:33.915Z,30.10
2022-08-01T14:51:03.824Z,29.86
2022-08-01T14:53:34.348Z,29.58
2022-08-01T14:56:04.805Z,29.39
2022-08-01T14:58:32.972Z,29.30
2022-08-01T15:01:01.664Z,29.28
2022-08-01T15:03:30.245Z,29.06
2022-08-01T15:05:57.921Z,28.67
2022-08-01T15:08:25.620Z,28.29
2022-08-01T15:10:53.615Z,28.01
2022-08-01T15:13:21.790Z,27.77
2022-08-01T15:15:50.365Z,27.52
2022-08-01T15:18:18.132Z,27.34
2022-08-01T15:20:46.389Z,27.21
2022-08-01T15:23:14.776Z,27.09
2022-08-01T15:25:42.689Z,26.96
2022-08-01T15:28:10.991Z,26.89
2022-08-01T15:30:39.675Z,26.84
2022-08-01T15:33:08.005Z,26.80
2022-08-01T15:35:35.763Z,26.73
2022-08-01T15:38:03.811Z,26.61
2022-08-01T15:40:35.567Z,26.49
2022-08-01T15:43:04.016Z,26.41
2022-08-01T15:45:48.431Z,26.31
2022-08-01T15:48:18.008Z,26.23
2022-08-01T15:50:45.981Z,26.14
2022-08-01T15:53:13.761Z,26.07
2022-08-01T15:55:48.900Z,25.99
2022-08-01T15:58:20.626Z,25.92
2022-08-01T16:00:48.392Z,25.85
2022-08-01T16:03:16.253Z,25.78
2022-08-01T16:05:44.502Z,25.69
2022-08-01T16:08:13.217Z,25.62
2022-08-01T16:10:41.387Z,25.55
2022-08-01T16:13:09.629Z,25.51
2022-08-01T16:15:38.282Z,25.45
2022-08-01T16:18:08.242Z,25.38
2022-08-01T16:20:40.168Z,25.35
2022-08-01T16:23:13.706Z,25.31
2022-08-01T16:25:41.589Z,25.28
2022-08-01T16:28:09.977Z,25.23
2022-08-01T16:31:00.079Z,25.17
2022-08-01T16:33:45.624Z,25.11
2022-08-01T16:36:17.075Z,25.08
2022-08-01T16:38:45.754Z,25.05
2022-08-01T16:41:19.403Z,25.00
2022-08-01T16:43:53.953Z,24.97
2022-08-01T16:46:25.218Z,24.91
2022-08-01T16:48:54.079Z,24.89
2022-08-01T16:51:21.905Z,24.86
2022-08-01T16:53:49.815Z,24.81
2022-08-01T16:56:17.895Z,24.78
2022-08-01T16:58:46.017Z,24.76
2022-08-01T17:02:00.104Z,24.73
2022-08-01T17:04:02.392Z,24.70
2022-08-01T17:06:30.397Z,24.65
2022-08-01T17:08:58.528Z,24.56
2022-08-01T17:11:27.010Z,24.48
2022-08-01T17:13:54.812Z,24.39
2022-08-01T17:16:23.432Z,24.31
2022-08-01T17:18:51.163Z,24.22
2022-08-01T17:21:19.354Z,24.14
2022-08-01T17:23:47.204Z,24.08
2022-08-01T17:26:15.121Z,24.00
2022-08-01T17:28:43.764Z,23.90
2022-08-01T17:31:11.540Z,23.81
2022-08-01T17:33:44.429Z,23.72
2022-08-01T17:36:12.983Z,23.65
2022-08-01T17:38:40.896Z,23.58
2022-08-01T17:41:08.743Z,23.51
2022-08-01T17:43:36.465Z,23.44
2022-08-01T17:46:04.348Z,23.38
2022-08-01T17:48:32.792Z,23.33
2022-08-01T17:51:00.740Z,23.28
2022-08-01T17:53:28.766Z,23.23
2022-08-01T17:55:59.001Z,23.19
2022-08-01T17:58:50.567Z,23.16
2022-08-01T18:01:17.397Z,23.11
2022-08-01T18:03:46.559Z,23.06
2022-08-01T18:06:17.409Z,23.01
2022-08-01T18:08:47.536Z,22.97
2022-08-01T18:11:16.926Z,22.91
2022-08-01T18:13:45.241Z,22.85
2022-08-01T18:16:13.594Z,22.80
2022-08-01T18:18:43.958Z,22.75
2022-08-01T18:21:12.277Z,22.70
2022-08-01T18:23:40.516Z,22.62
2022-08-01T18:26:20.632Z,22.56
2022-08-01T18:28:48.490Z,22.50
2022-08-01T18:31:17.886Z,22.44
2022-08-01T18:33:46.775Z,22.38
2022-08-01T18:36:32.455Z,22.33
2022-08-01T18:39:06.288Z,22.27
2022-08-01T18:41:37.924Z,22.22
2022-08-01T18:44:08.258Z,22.18
2022-08-01T18:46:38.236Z,22.14
2022-08-01T18:49:10.543Z,22.10
2022-08-01T18:51:44.326Z,22.05
2022-08-01T18:54:14.409Z,22.00
2022-08-01T18:56:43.324Z,21.96
2022-08-01T18:59:11.958Z,21.91
2022-08-01T19:01:40.221Z,21.86
2022-08-01T19:04:09.047Z,21.82
2022-08-01T19:06:37.905Z,21.80
2022-08-01T19:09:06.723Z,21.76
2022-08-01T19:11:34.949Z,21.71
2022-08-01T19:14:03.320Z,21.67
2022-08-01T19:16:31.620Z,21.63
2022-08-01T19:19:04.494Z,21.60
2022-08-01T19:21:33.079Z,21.57
2022-08-01T19:24:23.179Z,21.52
2022-08-01T19:26:56.659Z,21.46
2022-08-01T19:29:35.415Z,21.42
2022-08-01T19:32:06.454Z,21.39
2022-08-01T19:34:50.119Z,21.36
2022-08-01T19:37:18.105Z,21.33
2022-08-01T19:39:46.197Z,21.30
2022-08-01T19:42:14.080Z,21.27
2022-08-01T19:44:43.030Z,21.25
2022-08-01T19:47:13.013Z,21.23
2022-08-01T19:49:40.864Z,21.19
2022-08-01T19:52:09.802Z,21.14
2022-08-01T19:54:38.686Z,21.11
2022-08-01T19:57:08.027Z,21.09
2022-08-01T19:59:36.924Z,21.06
2022-08-01T20:02:05.711Z,21.04
2022-08-01T20:04:34.923Z,21.01
2022-08-01T20:07:03.663Z,20.98
2022-08-01T20:09:33.482Z,20.96
2022-08-01T20:12:01.403Z,20.95
2022-08-01T20:14:29.234Z,20.91
2022-08-01T20:16:57.177Z,20.87
2022-08-01T20:19:26.067Z,20.85
2022-08-01T20:22:04.514Z,20.84
2022-08-01T20:24:45.998Z,20.81
2022-08-01T20:27:15.647Z,20.77
2022-08-01T20:29:44.945Z,20.74
2022-08-01T20:32:13.182Z,20.72
2022-08-01T20:34:41.441Z,20.68
2022-08-01T20:37:13.264Z,20.64
2022-08-01T20:39:44.251Z,20.61
2022-08-01T20:42:14.161Z,20.58
2022-08-01T20:44:42.848Z,20.56
2022-08-01T20:47:11.117Z,20.55
2022-08-01T20:49:40.918Z,20.54
2022-08-01T20:52:11.799Z,20.52
2022-08-01T20:54:43.711Z,20.49
2022-08-01T20:57:26.244Z,20.45
2022-08-01T21:00:05.313Z,20.43
2022-08-01T21:03:02.710Z,20.40
2022-08-01T21:05:31.816Z,20.38
2022-08-01T21:08:14.207Z,20.37
2022-08-01T21:10:44.250Z,20.35
2022-08-01T21:13:21.347Z,20.32
2022-08-01T21:16:11.781Z,20.30
2022-08-01T21:21:55.428Z,20.28
2022-08-01T21:24:23.783Z,20.27
2022-08-01T21:26:53.544Z,20.25
2022-08-01T21:29:23.063Z,20.23
2022-08-01T21:32:11.687Z,20.22
2022-08-01T21:34:40.127Z,20.22
2022-08-01T21:37:09.303Z,20.21
2022-08-01T21:39:38.222Z,20.21
2022-08-01T21:42:09.234Z,20.21
2022-08-01T21:44:44.095Z,20.20
2022-08-01T21:47:12.479Z,20.17
2022-08-01T21:49:41.438Z,20.16
2022-08-01T21:52:15.352Z,20.15
2022-08-01T21:54:48.518Z,20.12
2022-08-01T21:57:23.620Z,20.11
2022-08-01T22:00:05.665Z,20.09
2022-08-01T22:02:37.974Z,20.09
2022-08-01T22:05:10.630Z,20.08
2022-08-01T22:07:45.905Z,20.06
2022-08-01T22:10:16.392Z,20.05
2022-08-01T22:12:45.306Z,20.04
2022-08-01T22:15:14.391Z,20.04
2022-08-01T22:17:42.384Z,20.04
2022-08-01T22:20:10.801Z,20.02
2022-08-01T22:22:51.219Z,20.00
2022-08-01T22:25:21.479Z,19.98
2022-08-01T22:28:05.844Z,19.97
2022-08-01T22:30:41.993Z,19.97
2022-08-01T22:33:17.154Z,19.96
2022-08-01T22:35:50.934Z,19.95
2022-08-01T22:38:20.833Z,19.95
2022-08-01T22:41:01.359Z,19.94
2022-08-01T22:43:56.738Z,19.94
2022-08-01T22:46:37.682Z,19.93
2022-08-01T22:49:31.130Z,19.92
2022-08-01T22:52:12.709Z,19.93
2022-08-01T22:54:44.567Z,19.93
2022-08-01T22:57:16.567Z,19.93
2022-08-01T23:00:01.945Z,19.93
2022-08-01T23:02:31.904Z,19.92
2022-08-01T23:05:08.084Z,19.90
2022-08-01T23:07:39.724Z,19.90
2022-08-01T23:10:08.693Z,19.89
2022-08-01T23:12:37.152Z,19.88
2022-08-01T23:15:05.683Z,19.86
2022-08-01T23:17:33.657Z,19.85
2022-08-01T23:20:03.947Z,19.84
2022-08-01T23:22:34.069Z,19.82
2022-08-01T23:25:06.475Z,19.80
2022-08-01T23:27:55.738Z,19.78
2022-08-01T23:30:35.063Z,19.76
2022-08-01T23:33:03.327Z,19.76
2022-08-01T23:35:31.504Z,19.75
2022-08-01T23:38:03.390Z,19.72
2022-08-01T23:40:32.584Z,19.71
2022-08-01T23:43:01.357Z,19.70
2022-08-01T23:46:02.840Z,19.67
2022-08-01T23:48:17.703Z,19.64
2022-08-01T23:50:45.721Z,19.62
2022-08-01T23:53:13.762Z,19.60
2022-08-01T23:55:44.072Z,19.56
2022-08-01T23:58:12.372Z,19.53
